createdAt,value
2022-12-11T00:01:50.992Z,11.30
2022-12-11T00:04:53.488Z,5.43
2022-12-11T00:07:55.805Z,9.27
2022-12-11T00:10:58.229Z,6.80
2022-12-11T00:14:00.330Z,6.50
2022-12-11T00:17:02.768Z,9.38
2022-12-11T00:20:05.521Z,10.13
2022-12-11T00:23:07.714Z,7.17
2022-12-11T00:26:15.492Z,7.28
2022-12-11T00:29:17.773Z,8.43
2022-12-11T00:32:19.834Z,10.18
2022-12-11T00:35:21.870Z,5.20
2022-12-11T00:38:24.391Z,10.80
2022-12-11T00:41:27.376Z,7.57
2022-12-11T00:44:29.358Z,8.98
2022-12-11T00:47:31.386Z,8.07
2022-12-11T00:50:34.162Z,9.33
2022-12-11T00:53:37.349Z,5.10
2022-12-11T00:56:39.501Z,7.05
2022-12-11T00:59:41.899Z,7.25
2022-12-11T01:02:43.987Z,6.60
2022-12-11T01:05:54.277Z,8.13
2022-12-11T01:09:15.460Z,6.53
2022-12-11T01:12:17.554Z,7.45
2022-12-11T01:15:21.353Z,6.47
2022-12-11T01:18:23.551Z,6.00
2022-12-11T01:21:26.083Z,8.33
2022-12-11T01:24:28.171Z,6.37
2022-12-11T01:27:30.252Z,5.15
2022-12-11T01:30:33.109Z,5.15
2022-12-11T01:33:35.355Z,5.47
2022-12-11T01:36:37.467Z,5.40
2022-12-11T01:39:39.673Z,3.63
2022-12-11T01:42:41.786Z,5.15
2022-12-11T01:45:46.360Z,7.30
2022-12-11T01:48:48.708Z,5.40
2022-12-11T01:51:57.782Z,4.83
2022-12-11T01:55:00.213Z,3.83
2022-12-11T01:58:03.116Z,4.40
2022-12-11T02:01:05.491Z,4.47
2022-12-11T02:04:09.614Z,4.25
2022-12-11T02:07:11.945Z,3.63
2022-12-11T02:10:14.984Z,4.27
2022-12-11T02:13:30.641Z,3.67
2022-12-11T02:16:55.095Z,5.22
2022-12-11T02:20:27.227Z,4.43
2022-12-11T02:23:35.126Z,2.97
2022-12-11T02:26:52.941Z,5.47
2022-12-11T02:30:10.983Z,4.30
2022-12-11T02:33:15.775Z,6.68
2022-12-11T02:36:21.568Z,3.92
2022-12-11T02:39:27.158Z,5.47
2022-12-11T02:42:32.590Z,4.40
2022-12-11T02:45:36.128Z,4.00
2022-12-11T02:48:40.270Z,4.95
2022-12-11T02:51:44.385Z,4.90
2022-12-11T02:54:48.198Z,6.60
2022-12-11T02:58:04.423Z,4.03
2022-12-11T03:01:06.605Z,5.82
2022-12-11T03:04:09.073Z,4.03
2022-12-11T03:07:17.934Z,4.07
2022-12-11T03:10:20.360Z,3.83
2022-12-11T03:13:23.127Z,5.00
2022-12-11T03:16:37.295Z,3.25
2022-12-11T03:19:51.471Z,4.47
2022-12-11T03:23:09.046Z,4.30
2022-12-11T03:26:13.773Z,4.93
2022-12-11T03:29:30.270Z,3.00
2022-12-11T03:32:43.638Z,4.82
2022-12-11T03:35:51.739Z,3.25
2022-12-11T03:38:59.163Z,6.10
2022-12-11T03:42:08.452Z,4.30
2022-12-11T03:45:12.199Z,4.13
2022-12-11T03:48:16.163Z,3.97
2022-12-11T03:51:19.178Z,4.15
2022-12-11T03:54:21.567Z,5.65
2022-12-11T03:57:26.327Z,4.67
2022-12-11T04:00:29.401Z,2.80
2022-12-11T04:03:31.458Z,5.20
2022-12-11T04:06:33.528Z,3.60
2022-12-11T04:09:36.085Z,3.05
2022-12-11T04:12:38.257Z,1.90
2022-12-11T04:15:40.894Z,5.07
2022-12-11T04:19:01.862Z,3.00
2022-12-11T04:22:22.861Z,3.37
2022-12-11T04:25:24.911Z,4.00
2022-12-11T04:28:26.917Z,3.37
2022-12-11T04:31:30.148Z,3.13
2022-12-11T04:34:32.229Z,2.47
2022-12-11T04:37:35.785Z,2.00
2022-12-11T04:40:37.905Z,3.58
2022-12-11T04:43:40.601Z,2.17
2022-12-11T04:46:42.646Z,4.27
2022-12-11T04:49:44.856Z,2.60
2022-12-11T04:52:46.864Z,5.20
2022-12-11T04:55:48.970Z,3.85
2022-12-11T04:58:50.979Z,3.20
2022-12-11T05:01:53.132Z,4.00
2022-12-11T05:04:55.206Z,2.72
2022-12-11T05:07:57.568Z,2.40
2022-12-11T05:11:01.480Z,2.08
2022-12-11T05:14:03.768Z,3.80
2022-12-11T05:17:05.766Z,2.43
2022-12-11T05:20:09.623Z,2.12
2022-12-11T05:23:11.991Z,2.00
2022-12-11T05:26:17.873Z,2.37
2022-12-11T05:29:20.109Z,2.77
2022-12-11T05:32:22.164Z,1.30
2022-12-11T05:35:24.178Z,3.58
2022-12-11T05:38:26.645Z,2.25
2022-12-11T05:41:30.726Z,2.35
2022-12-11T05:44:32.764Z,2.63
2022-12-11T05:47:34.874Z,2.50
2022-12-11T05:50:37.018Z,1.77
2022-12-11T05:53:40.153Z,1.70
2022-12-11T05:56:42.286Z,2.17
2022-12-11T05:59:45.416Z,1.40
2022-12-11T06:02:47.728Z,2.43
2022-12-11T06:05:49.878Z,2.22
2022-12-11T06:08:53.811Z,1.70
2022-12-11T06:11:55.839Z,2.20
2022-12-11T06:14:58.292Z,2.70
2022-12-11T06:18:00.446Z,1.80
2022-12-11T06:21:02.664Z,1.60
2022-12-11T06:24:05.780Z,2.03
2022-12-11T06:27:07.859Z,1.73
2022-12-11T06:30:10.659Z,1.60
2022-12-11T06:33:13.635Z,2.27
2022-12-11T06:36:18.500Z,2.10
2022-12-11T06:39:20.517Z,1.70
2022-12-11T06:42:22.822Z,1.20
2022-12-11T06:45:24.941Z,1.47
2022-12-11T06:48:27.055Z,1.53
2022-12-11T06:51:29.071Z,1.05
2022-12-11T06:54:31.290Z,1.33
2022-12-11T06:57:34.607Z,1.33
2022-12-11T07:00:38.305Z,2.00
2022-12-11T07:03:40.304Z,1.50
2022-12-11T07:06:42.433Z,1.30
2022-12-11T07:09:44.751Z,1.35
2022-12-11T07:12:46.832Z,1.33
2022-12-11T07:15:48.871Z,1.87
2022-12-11T07:18:51.669Z,1.63
2022-12-11T07:21:53.744Z,1.20
2022-12-11T07:24:55.817Z,1.12
2022-12-11T07:27:57.900Z,1.85
2022-12-11T07:31:00.200Z,1.20
2022-12-11T07:34:06.151Z,2.50
2022-12-11T07:37:08.180Z,2.08
2022-12-11T07:40:10.657Z,1.50
2022-12-11T07:43:12.958Z,1.20
2022-12-11T07:46:22.522Z,2.53
2022-12-11T07:49:24.660Z,1.60
2022-12-11T07:52:26.628Z,2.60
2022-12-11T07:55:28.753Z,2.58
2022-12-11T07:58:30.938Z,1.62
2022-12-11T08:01:38.385Z,1.47
2022-12-11T08:04:40.611Z,2.73
2022-12-11T08:07:42.690Z,1.90
2022-12-11T08:10:45.353Z,1.95
2022-12-11T08:13:47.851Z,1.33
2022-12-11T08:16:49.922Z,1.30
2022-12-11T08:19:52.082Z,2.00
2022-12-11T08:22:58.894Z,1.95
2022-12-11T08:26:05.881Z,2.03
2022-12-11T08:29:08.030Z,1.50
2022-12-11T08:32:12.387Z,2.47
2022-12-11T08:35:14.774Z,2.10
2022-12-11T08:38:20.957Z,2.10
2022-12-11T08:41:30.358Z,1.73
2022-12-11T08:44:32.419Z,1.45
2022-12-11T08:47:34.538Z,4.87
2022-12-11T08:50:40.001Z,2.10
2022-12-11T08:53:42.461Z,2.00
2022-12-11T08:56:44.492Z,2.22
2022-12-11T08:59:46.762Z,2.47
2022-12-11T09:02:49.051Z,2.30
2022-12-11T09:05:51.443Z,2.63
2022-12-11T09:08:54.726Z,2.45
2022-12-11T09:11:56.848Z,2.25
2022-12-11T09:14:58.928Z,2.45
2022-12-11T09:18:00.929Z,1.97
2022-12-11T09:21:09.187Z,3.03
2022-12-11T09:24:12.986Z,2.40
2022-12-11T09:27:15.076Z,3.90
2022-12-11T09:30:17.219Z,4.75
2022-12-11T09:33:19.453Z,3.50
2022-12-11T09:36:21.483Z,2.70
2022-12-11T09:39:23.459Z,2.17
2022-12-11T09:42:38.611Z,2.08
2022-12-11T09:45:40.672Z,1.40
2022-12-11T09:48:46.688Z,2.50
2022-12-11T09:52:02.194Z,2.23
2022-12-11T09:55:16.857Z,2.25
2022-12-11T09:58:39.725Z,2.95
2022-12-11T10:02:14.813Z,1.70
2022-12-11T10:05:16.840Z,1.70
2022-12-11T10:08:37.548Z,2.37
2022-12-11T10:12:00.573Z,2.78
2022-12-11T10:15:35.577Z,3.35
2022-12-11T10:18:43.106Z,1.33
2022-12-11T10:21:47.763Z,2.13
2022-12-11T10:25:12.726Z,1.77
2022-12-11T10:28:17.788Z,3.20
2022-12-11T10:31:39.237Z,2.12
2022-12-11T10:34:47.815Z,3.08
2022-12-11T10:37:50.661Z,2.83
2022-12-11T10:40:57.479Z,2.73
2022-12-11T10:44:01.985Z,2.83
2022-12-11T10:47:15.300Z,2.60
2022-12-11T10:50:25.730Z,2.87
2022-12-11T10:53:29.254Z,2.17
2022-12-11T10:56:34.461Z,1.70
2022-12-11T10:59:41.126Z,2.75
2022-12-11T11:02:46.093Z,2.20
2022-12-11T11:05:49.673Z,2.37
2022-12-11T11:09:00.751Z,1.40
2022-12-11T11:12:07.874Z,3.27
2022-12-11T11:15:15.393Z,2.47
2022-12-11T11:18:26.666Z,3.42
2022-12-11T11:21:30.291Z,2.37
2022-12-11T11:24:43.644Z,1.23
2022-12-11T11:27:55.335Z,1.90
2022-12-11T11:31:07.731Z,3.83
2022-12-11T11:34:19.892Z,4.50
2022-12-11T11:37:32.047Z,3.03
2022-12-11T11:40:50.352Z,2.70
2022-12-11T11:43:57.718Z,1.17
2022-12-11T11:47:11.485Z,1.48
2022-12-11T11:50:19.237Z,2.37
2022-12-11T11:53:33.209Z,1.90
2022-12-11T11:56:37.802Z,2.60
2022-12-11T11:59:45.017Z,2.67
2022-12-11T12:02:50.866Z,2.47
2022-12-11T12:06:04.353Z,2.70
2022-12-11T12:09:26.440Z,2.35
2022-12-11T12:12:36.755Z,2.77
2022-12-11T12:16:43.733Z,2.97
2022-12-11T12:19:50.801Z,1.20
2022-12-11T12:22:55.727Z,1.40
2022-12-11T12:26:09.563Z,2.10
2022-12-11T12:29:21.044Z,2.50
2022-12-11T12:32:37.673Z,2.47
2022-12-11T12:35:56.092Z,2.10
2022-12-11T12:39:02.941Z,2.03
2022-12-11T12:42:54.612Z,2.30
2022-12-11T12:46:09.635Z,1.90
2022-12-11T12:49:17.667Z,2.73
2022-12-11T12:52:26.502Z,1.75
2022-12-11T12:55:31.979Z,2.37
2022-12-11T12:58:34.159Z,1.35
2022-12-11T13:01:38.907Z,2.43
2022-12-11T13:04:59.171Z,1.30
2022-12-11T13:08:04.049Z,2.17
2022-12-11T13:11:09.380Z,2.05
2022-12-11T13:14:14.365Z,2.42
2022-12-11T13:17:22.301Z,2.20
2022-12-11T13:20:28.412Z,2.03
2022-12-11T13:23:35.075Z,2.45
2022-12-11T13:26:37.176Z,2.42
2022-12-11T13:29:41.979Z,2.50
2022-12-11T13:33:23.151Z,2.83
2022-12-11T13:36:32.025Z,1.50
2022-12-11T13:39:40.479Z,3.05
2022-12-11T13:42:57.376Z,2.03
2022-12-11T13:46:05.440Z,3.53
2022-12-11T13:49:18.658Z,2.33
2022-12-11T13:52:26.263Z,1.70
2022-12-11T13:55:31.662Z,2.10
2022-12-11T13:58:37.926Z,1.20
2022-12-11T14:01:40.479Z,4.65
2022-12-11T14:04:43.219Z,4.07
2022-12-11T14:07:55.121Z,4.53
2022-12-11T14:10:57.726Z,4.78
2022-12-11T14:14:03.612Z,3.47
2022-12-11T14:17:05.772Z,2.53
2022-12-11T14:20:19.229Z,3.57
2022-12-11T14:23:27.042Z,1.83
2022-12-11T14:26:30.458Z,2.10
2022-12-11T14:29:35.405Z,3.15
2022-12-11T14:32:45.171Z,2.97
2022-12-11T14:35:48.832Z,2.63
2022-12-11T14:39:17.314Z,2.77
2022-12-11T14:42:27.535Z,3.00
2022-12-11T14:45:41.784Z,2.80
2022-12-11T14:49:00.762Z,2.72
2022-12-11T14:52:05.174Z,3.03
2022-12-11T14:55:14.035Z,4.20
2022-12-11T14:58:27.386Z,1.77
2022-12-11T15:01:34.256Z,2.03
2022-12-11T15:04:36.930Z,3.20
2022-12-11T15:07:40.611Z,3.20
2022-12-11T15:11:11.652Z,2.77
2022-12-11T15:14:16.507Z,2.50
2022-12-11T15:17:19.893Z,3.80
2022-12-11T15:20:29.603Z,2.25
2022-12-11T15:23:31.863Z,3.30
2022-12-11T15:26:40.449Z,1.80
2022-12-11T15:29:43.030Z,1.55
2022-12-11T15:32:45.510Z,1.48
2022-12-11T15:36:00.999Z,2.78
2022-12-11T15:39:05.725Z,2.17
2022-12-11T15:42:09.141Z,1.90
2022-12-11T15:45:22.866Z,3.37
2022-12-11T15:48:25.018Z,1.73
2022-12-11T15:51:27.984Z,1.35
2022-12-11T15:54:30.781Z,2.80
2022-12-11T15:57:33.447Z,2.53
2022-12-11T16:00:36.181Z,1.95
2022-12-11T16:03:38.542Z,0.68
2022-12-11T16:06:45.638Z,1.33
2022-12-11T16:09:48.579Z,0.33
2022-12-11T16:12:51.088Z,1.47
2022-12-11T16:15:54.622Z,1.98
2022-12-11T16:18:57.836Z,2.70
2022-12-11T16:22:00.359Z,2.80
2022-12-11T16:25:02.839Z,2.93
2022-12-11T16:28:05.793Z,1.83
2022-12-11T16:31:16.113Z,2.47
2022-12-11T16:34:18.919Z,2.25
2022-12-11T16:37:23.326Z,2.42
2022-12-11T16:40:26.903Z,2.37
2022-12-11T16:43:30.487Z,1.93
2022-12-11T16:46:32.857Z,2.42
2022-12-11T16:49:35.668Z,1.87
2022-12-11T16:52:38.028Z,4.20
2022-12-11T16:55:40.845Z,2.80
2022-12-11T16:58:43.047Z,3.67
2022-12-11T17:01:45.935Z,2.08
2022-12-11T17:04:53.671Z,1.80
2022-12-11T17:07:57.155Z,2.33
2022-12-11T17:10:59.325Z,2.47
2022-12-11T17:14:01.667Z,3.60
2022-12-11T17:17:04.018Z,2.22
2022-12-11T17:20:07.459Z,4.20
2022-12-11T17:23:13.611Z,3.62
2022-12-11T17:26:17.622Z,3.90
2022-12-11T17:29:21.556Z,4.37
2022-12-11T17:32:23.670Z,2.62
2022-12-11T17:35:26.661Z,2.80
2022-12-11T17:38:31.441Z,3.08
2022-12-11T17:41:34.288Z,4.03
2022-12-11T17:44:36.904Z,2.57
2022-12-11T17:47:39.709Z,4.05
2022-12-11T17:50:43.609Z,2.83
2022-12-11T17:53:46.029Z,1.90
2022-12-11T17:56:48.971Z,3.40
2022-12-11T17:59:54.809Z,1.93
2022-12-11T18:02:57.428Z,2.17
2022-12-11T18:06:05.373Z,2.17
2022-12-11T18:09:08.667Z,2.55
2022-12-11T18:12:11.479Z,3.50
2022-12-11T18:15:14.526Z,2.67
2022-12-11T18:18:16.832Z,2.87
2022-12-11T18:21:22.994Z,1.90
2022-12-11T18:24:31.746Z,1.48
2022-12-11T18:27:34.456Z,2.20
2022-12-11T18:30:39.466Z,2.23
2022-12-11T18:33:43.987Z,2.10
2022-12-11T18:36:46.633Z,2.67
2022-12-11T18:39:49.587Z,4.03
2022-12-11T18:42:52.434Z,2.77
2022-12-11T18:45:56.029Z,1.63
2022-12-11T18:48:58.855Z,4.75
2022-12-11T18:52:02.012Z,1.83
2022-12-11T18:55:05.911Z,1.20
2022-12-11T18:58:08.627Z,2.47
2022-12-11T19:01:16.631Z,2.17
2022-12-11T19:04:19.990Z,3.87
2022-12-11T19:07:23.143Z,0.95
2022-12-11T19:10:30.510Z,3.33
2022-12-11T19:13:34.169Z,1.77
2022-12-11T19:16:43.566Z,2.77
2022-12-11T19:19:47.967Z,1.80
2022-12-11T19:22:51.618Z,1.58
2022-12-11T19:29:52.530Z,2.47
2022-12-11T19:33:00.375Z,1.10
2022-12-11T19:36:15.382Z,1.17
2022-12-11T19:39:19.883Z,1.85
2022-12-11T19:42:25.564Z,1.42
2022-12-11T19:45:29.992Z,2.20
2022-12-11T19:48:41.555Z,2.07
2022-12-11T19:51:45.556Z,2.35
2022-12-11T19:54:51.404Z,1.15
2022-12-11T19:57:55.431Z,2.15
2022-12-11T20:01:02.082Z,1.30
2022-12-11T20:04:08.483Z,0.90
2022-12-11T20:07:11.723Z,0.90
2022-12-11T20:10:14.575Z,1.33
2022-12-11T20:13:18.426Z,2.37
2022-12-11T20:16:39.139Z,1.00
2022-12-11T20:19:45.494Z,1.33
2022-12-11T20:22:53.248Z,1.25
2022-12-11T20:25:59.007Z,0.85
2022-12-11T20:29:05.665Z,1.95
2022-12-11T20:32:08.515Z,1.43
2022-12-11T20:35:13.299Z,2.13
2022-12-11T20:38:16.650Z,1.05
2022-12-11T20:41:23.955Z,1.80
2022-12-11T20:44:26.750Z,2.08
2022-12-11T20:47:29.701Z,1.87
2022-12-11T20:50:33.967Z,1.17
2022-12-11T20:53:37.988Z,1.33
2022-12-11T20:56:40.852Z,1.55
2022-12-11T20:59:45.840Z,0.73
2022-12-11T21:02:50.775Z,1.27
2022-12-11T21:05:53.602Z,1.60
2022-12-11T21:08:56.240Z,2.35
2022-12-11T21:12:03.436Z,1.60
2022-12-11T21:15:06.561Z,1.92
2022-12-11T21:18:09.190Z,1.17
2022-12-11T21:21:11.465Z,1.23
2022-12-11T21:24:19.555Z,1.35
2022-12-11T21:27:25.056Z,1.08
2022-12-11T21:30:32.053Z,0.85
2022-12-11T21:33:34.987Z,1.53
2022-12-11T21:36:37.178Z,2.20
2022-12-11T21:39:39.634Z,2.22
2022-12-11T21:42:41.803Z,1.42
2022-12-11T21:46:01.540Z,0.90
2022-12-11T21:49:04.400Z,2.03
2022-12-11T21:52:08.491Z,1.40
2022-12-11T21:55:12.184Z,2.03
2022-12-11T21:58:14.616Z,0.35
2022-12-11T22:01:26.567Z,1.67
2022-12-11T22:04:28.729Z,2.37
2022-12-11T22:07:33.803Z,0.67
2022-12-11T22:10:44.611Z,1.90
2022-12-11T22:13:46.796Z,1.00
2022-12-11T22:16:48.845Z,1.70
2022-12-11T22:19:52.160Z,2.43
2022-12-11T22:22:54.191Z,1.80
2022-12-11T22:25:56.510Z,2.33
2022-12-11T22:28:58.706Z,1.50
2022-12-11T22:32:00.688Z,2.53
2022-12-11T22:35:03.140Z,2.53
2022-12-11T22:38:05.644Z,2.90
2022-12-11T22:41:20.566Z,3.00
2022-12-11T22:44:23.934Z,2.35
2022-12-11T22:47:26.028Z,2.42
2022-12-11T22:50:28.448Z,1.33
2022-12-11T22:53:30.420Z,3.63
2022-12-11T22:56:32.452Z,2.70
2022-12-11T22:59:35.309Z,3.03
2022-12-11T23:02:38.613Z,3.40
2022-12-11T23:05:41.175Z,2.67
2022-12-11T23:08:44.119Z,2.53
2022-12-11T23:11:46.275Z,3.33
2022-12-11T23:14:49.452Z,3.00
2022-12-11T23:17:51.522Z,3.08
2022-12-11T23:20:53.877Z,2.70
2022-12-11T23:23:57.251Z,2.93
2022-12-11T23:27:00.527Z,3.30
2022-12-11T23:30:02.557Z,1.85
2022-12-11T23:33:06.757Z,2.53
2022-12-11T23:36:09.867Z,3.30
2022-12-11T23:39:11.954Z,3.43
2022-12-11T23:42:14.324Z,2.75
2022-12-11T23:45:16.483Z,2.67
2022-12-11T23:48:18.708Z,2.62
2022-12-11T23:51:23.429Z,2.30
2022-12-11T23:54:25.605Z,3.67
2022-12-11T23:57:28.093Z,1.27
